sensor_id;sensor_type;location;lat;lon;timestamp;temperature;humidity
42715;DHT22;28351;51.480;5.706;2023-06-10T00:00:13;21.80;90.60
42715;DHT22;28351;51.480;5.706;2023-06-10T00:02:40;21.80;90.70
42715;DHT22;28351;51.480;5.706;2023-06-10T00:05:07;21.70;90.70
42715;DHT22;28351;51.480;5.706;2023-06-10T00:07:36;21.70;90.80
42715;DHT22;28351;51.480;5.706;2023-06-10T00:10:06;21.60;90.80
42715;DHT22;28351;51.480;5.706;2023-06-10T00:12:32;21.60;91.00
42715;DHT22;28351;51.480;5.706;2023-06-10T00:15:03;21.50;91.00
42715;DHT22;28351;51.480;5.706;2023-06-10T00:17:30;21.50;91.10
42715;DHT22;28351;51.480;5.706;2023-06-10T00:19:56;21.40;91.40
42715;DHT22;28351;51.480;5.706;2023-06-10T00:22:22;21.40;91.20
42715;DHT22;28351;51.480;5.706;2023-06-10T00:24:47;21.40;91.20
42715;DHT22;28351;51.480;5.706;2023-06-10T00:27:16;21.30;91.30
42715;DHT22;28351;51.480;5.706;2023-06-10T00:29:42;21.30;91.30
42715;DHT22;28351;51.480;5.706;2023-06-10T00:32:08;21.30;91.20
42715;DHT22;28351;51.480;5.706;2023-06-10T00:34:33;21.30;91.30
42715;DHT22;28351;51.480;5.706;2023-06-10T00:36:59;21.30;91.40
42715;DHT22;28351;51.480;5.706;2023-06-10T00:39:25;21.20;91.50
42715;DHT22;28351;51.480;5.706;2023-06-10T00:41:50;21.20;91.60
42715;DHT22;28351;51.480;5.706;2023-06-10T00:44:16;21.10;91.80
42715;DHT22;28351;51.480;5.706;2023-06-10T00:46:42;21.10;91.80
42715;DHT22;28351;51.480;5.706;2023-06-10T00:49:07;21.00;91.80
42715;DHT22;28351;51.480;5.706;2023-06-10T00:51:34;20.90;91.90
42715;DHT22;28351;51.480;5.706;2023-06-10T00:54:00;20.80;92.00
42715;DHT22;28351;51.480;5.706;2023-06-10T00:56:27;20.80;92.20
42715;DHT22;28351;51.480;5.706;2023-06-10T00:58:53;20.70;92.40
42715;DHT22;28351;51.480;5.706;2023-06-10T01:01:19;20.70;92.50
42715;DHT22;28351;51.480;5.706;2023-06-10T01:03:45;20.70;92.60
42715;DHT22;28351;51.480;5.706;2023-06-10T01:08:58;20.40;92.80
42715;DHT22;28351;51.480;5.706;2023-06-10T01:11:39;20.30;93.00
42715;DHT22;28351;51.480;5.706;2023-06-10T01:14:07;20.20;93.10
42715;DHT22;28351;51.480;5.706;2023-06-10T01:16:35;20.10;93.20
42715;DHT22;28351;51.480;5.706;2023-06-10T01:19:02;20.00;93.30
42715;DHT22;28351;51.480;5.706;2023-06-10T01:21:28;20.00;93.50
42715;DHT22;28351;51.480;5.706;2023-06-10T01:23:56;20.00;93.50
42715;DHT22;28351;51.480;5.706;2023-06-10T01:26:32;19.80;93.60
42715;DHT22;28351;51.480;5.706;2023-06-10T01:29:28;19.80;93.70
42715;DHT22;28351;51.480;5.706;2023-06-10T01:32:08;19.80;93.60
42715;DHT22;28351;51.480;5.706;2023-06-10T01:34:37;19.80;93.70
42715;DHT22;28351;51.480;5.706;2023-06-10T01:37:04;19.70;93.70
42715;DHT22;28351;51.480;5.706;2023-06-10T01:39:32;19.60;94.10
42715;DHT22;28351;51.480;5.706;2023-06-10T01:41:58;19.60;93.90
42715;DHT22;28351;51.480;5.706;2023-06-10T01:44:24;19.50;93.90
42715;DHT22;28351;51.480;5.706;2023-06-10T01:46:50;19.50;94.00
42715;DHT22;28351;51.480;5.706;2023-06-10T01:49:15;19.40;94.10
42715;DHT22;28351;51.480;5.706;2023-06-10T01:51:41;19.30;94.20
42715;DHT22;28351;51.480;5.706;2023-06-10T01:54:07;19.30;94.20
42715;DHT22;28351;51.480;5.706;2023-06-10T01:56:33;19.30;94.30
42715;DHT22;28351;51.480;5.706;2023-06-10T01:58:58;19.30;94.40
42715;DHT22;28351;51.480;5.706;2023-06-10T02:01:28;19.30;94.50
42715;DHT22;28351;51.480;5.706;2023-06-10T02:03:53;19.20;94.50
42715;DHT22;28351;51.480;5.706;2023-06-10T02:06:19;19.10;94.60
42715;DHT22;28351;51.480;5.706;2023-06-10T02:08:45;19.10;94.70
42715;DHT22;28351;51.480;5.706;2023-06-10T02:11:10;19.00;94.80
42715;DHT22;28351;51.480;5.706;2023-06-10T02:13:37;18.90;94.80
42715;DHT22;28351;51.480;5.706;2023-06-10T02:16:03;18.90;95.00
42715;DHT22;28351;51.480;5.706;2023-06-10T02:18:28;18.90;95.00
42715;DHT22;28351;51.480;5.706;2023-06-10T02:20:54;18.80;95.10
42715;DHT22;28351;51.480;5.706;2023-06-10T02:23:20;18.80;95.10
42715;DHT22;28351;51.480;5.706;2023-06-10T02:25:45;18.80;95.30
42715;DHT22;28351;51.480;5.706;2023-06-10T02:28:12;18.70;95.40
42715;DHT22;28351;51.480;5.706;2023-06-10T02:30:40;18.70;95.50
42715;DHT22;28351;51.480;5.706;2023-06-10T02:33:06;18.60;95.60
42715;DHT22;28351;51.480;5.706;2023-06-10T02:35:35;18.70;95.70
42715;DHT22;28351;51.480;5.706;2023-06-10T02:38:01;18.60;95.70
42715;DHT22;28351;51.480;5.706;2023-06-10T02:40:26;18.60;95.90
42715;DHT22;28351;51.480;5.706;2023-06-10T02:42:52;18.50;96.00
42715;DHT22;28351;51.480;5.706;2023-06-10T02:45:18;18.50;96.00
42715;DHT22;28351;51.480;5.706;2023-06-10T02:47:43;18.50;96.20
42715;DHT22;28351;51.480;5.706;2023-06-10T02:50:09;18.50;96.20
42715;DHT22;28351;51.480;5.706;2023-06-10T02:52:35;18.40;96.30
42715;DHT22;28351;51.480;5.706;2023-06-10T02:55:00;18.30;96.50
42715;DHT22;28351;51.480;5.706;2023-06-10T02:57:26;18.30;96.60
42715;DHT22;28351;51.480;5.706;2023-06-10T02:59:51;18.30;96.70
42715;DHT22;28351;51.480;5.706;2023-06-10T03:02:18;18.20;96.70
42715;DHT22;28351;51.480;5.706;2023-06-10T03:04:44;18.20;96.90
42715;DHT22;28351;51.480;5.706;2023-06-10T03:07:10;18.20;97.00
42715;DHT22;28351;51.480;5.706;2023-06-10T03:09:36;18.20;97.10
42715;DHT22;28351;51.480;5.706;2023-06-10T03:12:02;18.10;97.10
42715;DHT22;28351;51.480;5.706;2023-06-10T03:14:28;18.10;97.20
42715;DHT22;28351;51.480;5.706;2023-06-10T03:16:54;18.00;97.30
42715;DHT22;28351;51.480;5.706;2023-06-10T03:19:19;18.00;97.50
42715;DHT22;28351;51.480;5.706;2023-06-10T03:21:58;18.00;97.60
42715;DHT22;28351;51.480;5.706;2023-06-10T03:24:31;18.00;97.60
42715;DHT22;28351;51.480;5.706;2023-06-10T03:26:57;18.00;97.80
42715;DHT22;28351;51.480;5.706;2023-06-10T03:29:23;17.90;97.80
42715;DHT22;28351;51.480;5.706;2023-06-10T03:31:48;17.90;97.90
42715;DHT22;28351;51.480;5.706;2023-06-10T03:34:14;17.90;98.00
42715;DHT22;28351;51.480;5.706;2023-06-10T03:36:39;17.80;98.10
42715;DHT22;28351;51.480;5.706;2023-06-10T03:39:06;17.80;98.30
42715;DHT22;28351;51.480;5.706;2023-06-10T03:41:32;17.80;98.30
42715;DHT22;28351;51.480;5.706;2023-06-10T03:43:58;17.80;98.50
42715;DHT22;28351;51.480;5.706;2023-06-10T03:46:23;17.80;98.50
42715;DHT22;28351;51.480;5.706;2023-06-10T03:48:49;17.80;98.50
42715;DHT22;28351;51.480;5.706;2023-06-10T03:51:14;17.70;98.70
42715;DHT22;28351;51.480;5.706;2023-06-10T03:53:40;17.70;98.80
42715;DHT22;28351;51.480;5.706;2023-06-10T03:56:06;17.70;98.90
42715;DHT22;28351;51.480;5.706;2023-06-10T03:58:31;17.70;99.10
42715;DHT22;28351;51.480;5.706;2023-06-10T04:00:57;17.60;99.20
42715;DHT22;28351;51.480;5.706;2023-06-10T04:03:23;17.70;99.40
42715;DHT22;28351;51.480;5.706;2023-06-10T04:05:49;17.60;99.50
42715;DHT22;28351;51.480;5.706;2023-06-10T04:08:15;17.70;99.60
42715;DHT22;28351;51.480;5.706;2023-06-10T04:10:41;17.70;99.80
42715;DHT22;28351;51.480;5.706;2023-06-10T04:13:06;17.70;99.80
42715;DHT22;28351;51.480;5.706;2023-06-10T04:15:32;17.70;99.70
42715;DHT22;28351;51.480;5.706;2023-06-10T04:17:58;17.70;99.70
42715;DHT22;28351;51.480;5.706;2023-06-10T04:20:25;17.80;99.80
42715;DHT22;28351;51.480;5.706;2023-06-10T04:22:50;17.80;99.90
42715;DHT22;28351;51.480;5.706;2023-06-10T04:25:16;17.80;99.90
42715;DHT22;28351;51.480;5.706;2023-06-10T04:27:42;17.80;99.90
42715;DHT22;28351;51.480;5.706;2023-06-10T04:30:08;17.80;99.90
42715;DHT22;28351;51.480;5.706;2023-06-10T04:32:34;17.90;99.90
42715;DHT22;28351;51.480;5.706;2023-06-10T04:35:00;17.90;99.90
42715;DHT22;28351;51.480;5.706;2023-06-10T04:37:26;18.00;99.90
42715;DHT22;28351;51.480;5.706;2023-06-10T04:39:51;18.10;99.80
42715;DHT22;28351;51.480;5.706;2023-06-10T04:42:17;18.10;99.80
42715;DHT22;28351;51.480;5.706;2023-06-10T04:44:42;18.10;99.70
42715;DHT22;28351;51.480;5.706;2023-06-10T04:47:08;18.20;99.60
42715;DHT22;28351;51.480;5.706;2023-06-10T04:49:34;18.30;99.50
42715;DHT22;28351;51.480;5.706;2023-06-10T04:52:00;18.30;99.30
42715;DHT22;28351;51.480;5.706;2023-06-10T04:54:26;18.40;99.20
42715;DHT22;28351;51.480;5.706;2023-06-10T04:56:52;18.50;99.20
42715;DHT22;28351;51.480;5.706;2023-06-10T04:59:17;18.50;99.00
42715;DHT22;28351;51.480;5.706;2023-06-10T05:01:43;18.50;99.00
42715;DHT22;28351;51.480;5.706;2023-06-10T05:04:08;18.60;98.80
42715;DHT22;28351;51.480;5.706;2023-06-10T05:06:34;18.60;98.70
42715;DHT22;28351;51.480;5.706;2023-06-10T05:09:01;18.70;98.50
42715;DHT22;28351;51.480;5.706;2023-06-10T05:11:27;18.80;98.40
42715;DHT22;28351;51.480;5.706;2023-06-10T05:13:52;18.90;98.10
42715;DHT22;28351;51.480;5.706;2023-06-10T05:16:18;19.00;97.90
42715;DHT22;28351;51.480;5.706;2023-06-10T05:18:43;19.10;97.80
42715;DHT22;28351;51.480;5.706;2023-06-10T05:21:09;19.10;97.60
42715;DHT22;28351;51.480;5.706;2023-06-10T05:23:35;19.20;97.70
42715;DHT22;28351;51.480;5.706;2023-06-10T05:26:00;19.20;97.50
42715;DHT22;28351;51.480;5.706;2023-06-10T05:28:26;19.30;97.40
42715;DHT22;28351;51.480;5.706;2023-06-10T05:30:51;19.40;97.20
42715;DHT22;28351;51.480;5.706;2023-06-10T05:33:17;19.50;97.10
42715;DHT22;28351;51.480;5.706;2023-06-10T05:35:43;19.50;97.10
42715;DHT22;28351;51.480;5.706;2023-06-10T05:38:08;19.60;97.00
42715;DHT22;28351;51.480;5.706;2023-06-10T05:40:34;19.70;96.80
42715;DHT22;28351;51.480;5.706;2023-06-10T05:42:59;19.70;96.70
42715;DHT22;28351;51.480;5.706;2023-06-10T05:45:27;19.80;96.50
42715;DHT22;28351;51.480;5.706;2023-06-10T05:47:52;19.90;96.50
42715;DHT22;28351;51.480;5.706;2023-06-10T05:50:18;20.00;96.20
42715;DHT22;28351;51.480;5.706;2023-06-10T05:52:43;20.10;95.90
42715;DHT22;28351;51.480;5.706;2023-06-10T05:55:09;20.20;95.70
42715;DHT22;28351;51.480;5.706;2023-06-10T05:57:35;20.20;95.80
42715;DHT22;28351;51.480;5.706;2023-06-10T06:00:01;20.30;95.50
42715;DHT22;28351;51.480;5.706;2023-06-10T06:02:26;20.40;95.60
42715;DHT22;28351;51.480;5.706;2023-06-10T06:04:52;20.40;95.30
42715;DHT22;28351;51.480;5.706;2023-06-10T06:07:17;20.50;95.40
42715;DHT22;28351;51.480;5.706;2023-06-10T06:09:46;20.60;95.00
42715;DHT22;28351;51.480;5.706;2023-06-10T06:12:12;20.70;94.90
42715;DHT22;28351;51.480;5.706;2023-06-10T06:14:38;20.80;94.80
42715;DHT22;28351;51.480;5.706;2023-06-10T06:17:06;20.90;94.50
42715;DHT22;28351;51.480;5.706;2023-06-10T06:19:32;21.00;94.80
42715;DHT22;28351;51.480;5.706;2023-06-10T06:21:58;21.10;94.30
42715;DHT22;28351;51.480;5.706;2023-06-10T06:24:23;21.20;94.50
42715;DHT22;28351;51.480;5.706;2023-06-10T06:26:49;21.20;94.50
42715;DHT22;28351;51.480;5.706;2023-06-10T06:29:14;21.30;94.00
42715;DHT22;28351;51.480;5.706;2023-06-10T06:31:40;21.30;93.70
42715;DHT22;28351;51.480;5.706;2023-06-10T06:34:06;21.40;93.60
42715;DHT22;28351;51.480;5.706;2023-06-10T06:36:31;21.60;93.60
42715;DHT22;28351;51.480;5.706;2023-06-10T06:38:57;21.60;93.60
42715;DHT22;28351;51.480;5.706;2023-06-10T06:41:25;21.70;93.40
42715;DHT22;28351;51.480;5.706;2023-06-10T06:43:51;21.90;93.00
42715;DHT22;28351;51.480;5.706;2023-06-10T06:46:17;21.90;92.70
42715;DHT22;28351;51.480;5.706;2023-06-10T06:48:42;22.00;93.10
42715;DHT22;28351;51.480;5.706;2023-06-10T06:51:09;22.00;92.60
42715;DHT22;28351;51.480;5.706;2023-06-10T06:53:35;22.10;92.70
42715;DHT22;28351;51.480;5.706;2023-06-10T06:56:02;22.30;92.80
42715;DHT22;28351;51.480;5.706;2023-06-10T06:58:28;22.30;92.60
42715;DHT22;28351;51.480;5.706;2023-06-10T07:00:53;22.40;91.90
42715;DHT22;28351;51.480;5.706;2023-06-10T07:03:22;22.40;91.60
42715;DHT22;28351;51.480;5.706;2023-06-10T07:05:47;22.50;91.90
42715;DHT22;28351;51.480;5.706;2023-06-10T07:08:13;22.60;91.50
42715;DHT22;28351;51.480;5.706;2023-06-10T07:10:38;22.80;91.60
42715;DHT22;28351;51.480;5.706;2023-06-10T07:13:04;22.80;91.50
42715;DHT22;28351;51.480;5.706;2023-06-10T07:15:30;22.90;91.40
42715;DHT22;28351;51.480;5.706;2023-06-10T07:17:56;23.00;91.30
42715;DHT22;28351;51.480;5.706;2023-06-10T07:20:22;23.20;91.50
42715;DHT22;28351;51.480;5.706;2023-06-10T07:22:48;23.30;90.70
42715;DHT22;28351;51.480;5.706;2023-06-10T07:25:14;23.40;90.70
42715;DHT22;28351;51.480;5.706;2023-06-10T07:27:40;23.50;90.20
42715;DHT22;28351;51.480;5.706;2023-06-10T07:30:07;23.50;90.00
42715;DHT22;28351;51.480;5.706;2023-06-10T07:32:33;23.60;89.30
42715;DHT22;28351;51.480;5.706;2023-06-10T07:34:59;23.70;89.00
42715;DHT22;28351;51.480;5.706;2023-06-10T07:37:25;23.80;89.60
42715;DHT22;28351;51.480;5.706;2023-06-10T07:39:50;23.80;88.70
42715;DHT22;28351;51.480;5.706;2023-06-10T07:42:16;23.90;88.00
42715;DHT22;28351;51.480;5.706;2023-06-10T07:44:42;24.00;88.20
42715;DHT22;28351;51.480;5.706;2023-06-10T07:47:07;24.00;87.30
42715;DHT22;28351;51.480;5.706;2023-06-10T07:49:33;24.20;87.70
42715;DHT22;28351;51.480;5.706;2023-06-10T07:51:58;24.30;87.20
42715;DHT22;28351;51.480;5.706;2023-06-10T07:54:24;24.50;87.30
42715;DHT22;28351;51.480;5.706;2023-06-10T07:56:50;24.60;86.20
42715;DHT22;28351;51.480;5.706;2023-06-10T07:59:18;24.60;86.20
42715;DHT22;28351;51.480;5.706;2023-06-10T08:01:43;24.70;86.40
42715;DHT22;28351;51.480;5.706;2023-06-10T08:04:09;24.70;85.70
42715;DHT22;28351;51.480;5.706;2023-06-10T08:06:35;24.90;86.00
42715;DHT22;28351;51.480;5.706;2023-06-10T08:09:02;24.90;85.10
42715;DHT22;28351;51.480;5.706;2023-06-10T08:11:28;25.10;84.50
42715;DHT22;28351;51.480;5.706;2023-06-10T08:13:54;25.20;84.80
42715;DHT22;28351;51.480;5.706;2023-06-10T08:16:20;25.20;85.00
42715;DHT22;28351;51.480;5.706;2023-06-10T08:18:46;25.40;83.60
42715;DHT22;28351;51.480;5.706;2023-06-10T08:21:11;25.50;83.40
42715;DHT22;28351;51.480;5.706;2023-06-10T08:23:37;25.50;83.40
42715;DHT22;28351;51.480;5.706;2023-06-10T08:26:02;25.60;83.20
42715;DHT22;28351;51.480;5.706;2023-06-10T08:28:28;25.90;83.80
42715;DHT22;28351;51.480;5.706;2023-06-10T08:30:54;26.00;82.50
42715;DHT22;28351;51.480;5.706;2023-06-10T08:33:19;26.10;81.60
42715;DHT22;28351;51.480;5.706;2023-06-10T08:35:45;26.10;81.70
42715;DHT22;28351;51.480;5.706;2023-06-10T08:38:10;26.30;80.70
42715;DHT22;28351;51.480;5.706;2023-06-10T08:40:37;26.30;81.10
42715;DHT22;28351;51.480;5.706;2023-06-10T08:43:07;26.40;80.10
42715;DHT22;28351;51.480;5.706;2023-06-10T08:45:35;26.40;79.10
42715;DHT22;28351;51.480;5.706;2023-06-10T08:48:05;26.50;79.50
42715;DHT22;28351;51.480;5.706;2023-06-10T08:50:37;26.80;79.30
42715;DHT22;28351;51.480;5.706;2023-06-10T08:53:07;26.90;78.70
42715;DHT22;28351;51.480;5.706;2023-06-10T08:55:36;27.00;78.50
42715;DHT22;28351;51.480;5.706;2023-06-10T08:58:03;27.10;77.40
42715;DHT22;28351;51.480;5.706;2023-06-10T09:00:30;27.30;77.40
42715;DHT22;28351;51.480;5.706;2023-06-10T09:02:57;27.40;77.00
42715;DHT22;28351;51.480;5.706;2023-06-10T09:05:23;27.50;78.00
42715;DHT22;28351;51.480;5.706;2023-06-10T09:07:51;27.60;77.50
42715;DHT22;28351;51.480;5.706;2023-06-10T09:10:17;27.60;77.00
42715;DHT22;28351;51.480;5.706;2023-06-10T09:12:43;27.90;76.30
42715;DHT22;28351;51.480;5.706;2023-06-10T09:15:09;27.80;75.80
42715;DHT22;28351;51.480;5.706;2023-06-10T09:17:40;27.90;76.30
42715;DHT22;28351;51.480;5.706;2023-06-10T09:20:07;28.00;76.80
42715;DHT22;28351;51.480;5.706;2023-06-10T09:22:33;28.10;76.00
42715;DHT22;28351;51.480;5.706;2023-06-10T09:25:09;28.20;76.50
42715;DHT22;28351;51.480;5.706;2023-06-10T09:27:49;28.40;76.60
42715;DHT22;28351;51.480;5.706;2023-06-10T09:32:55;28.90;75.40
42715;DHT22;28351;51.480;5.706;2023-06-10T09:35:24;28.90;74.90
42715;DHT22;28351;51.480;5.706;2023-06-10T09:37:56;28.60;74.20
42715;DHT22;28351;51.480;5.706;2023-06-10T09:40:22;28.60;76.50
42715;DHT22;28351;51.480;5.706;2023-06-10T09:42:59;28.80;76.00
42715;DHT22;28351;51.480;5.706;2023-06-10T09:45:30;28.80;75.90
42715;DHT22;28351;51.480;5.706;2023-06-10T09:47:59;28.90;75.00
42715;DHT22;28351;51.480;5.706;2023-06-10T09:50:24;29.10;75.60
42715;DHT22;28351;51.480;5.706;2023-06-10T09:52:51;29.30;75.00
42715;DHT22;28351;51.480;5.706;2023-06-10T09:55:17;29.30;74.40
42715;DHT22;28351;51.480;5.706;2023-06-10T09:57:44;29.40;75.30
42715;DHT22;28351;51.480;5.706;2023-06-10T10:00:13;29.60;74.30
42715;DHT22;28351;51.480;5.706;2023-06-10T10:02:49;29.80;74.70
42715;DHT22;28351;51.480;5.706;2023-06-10T10:05:18;29.80;74.30
42715;DHT22;28351;51.480;5.706;2023-06-10T10:07:44;30.10;73.50
42715;DHT22;28351;51.480;5.706;2023-06-10T10:10:11;30.20;73.90
42715;DHT22;28351;51.480;5.706;2023-06-10T10:12:43;30.10;73.40
42715;DHT22;28351;51.480;5.706;2023-06-10T10:15:11;30.30;73.20
42715;DHT22;28351;51.480;5.706;2023-06-10T10:17:44;30.40;73.00
42715;DHT22;28351;51.480;5.706;2023-06-10T10:20:14;30.70;72.10
42715;DHT22;28351;51.480;5.706;2023-06-10T10:22:43;30.70;71.60
42715;DHT22;28351;51.480;5.706;2023-06-10T10:25:11;30.70;72.10
42715;DHT22;28351;51.480;5.706;2023-06-10T10:28:05;30.60;72.40
42715;DHT22;28351;51.480;5.706;2023-06-10T10:30:34;30.90;72.20
42715;DHT22;28351;51.480;5.706;2023-06-10T10:33:05;31.30;72.10
42715;DHT22;28351;51.480;5.706;2023-06-10T10:35:34;31.70;70.70
42715;DHT22;28351;51.480;5.706;2023-06-10T10:37:59;31.70;71.10
42715;DHT22;28351;51.480;5.706;2023-06-10T10:40:26;31.80;71.10
42715;DHT22;28351;51.480;5.706;2023-06-10T10:42:56;31.80;70.10
42715;DHT22;28351;51.480;5.706;2023-06-10T10:45:22;32.20;70.20
42715;DHT22;28351;51.480;5.706;2023-06-10T10:47:52;32.60;71.00
42715;DHT22;28351;51.480;5.706;2023-06-10T10:50:19;33.10;69.50
42715;DHT22;28351;51.480;5.706;2023-06-10T10:53:03;33.30;68.50
42715;DHT22;28351;51.480;5.706;2023-06-10T10:55:38;33.20;67.80
42715;DHT22;28351;51.480;5.706;2023-06-10T10:58:07;33.40;68.40
42715;DHT22;28351;51.480;5.706;2023-06-10T11:00:37;33.80;68.20
42715;DHT22;28351;51.480;5.706;2023-06-10T11:05:48;34.30;67.50
42715;DHT22;28351;51.480;5.706;2023-06-10T11:09:00;34.70;67.10
42715;DHT22;28351;51.480;5.706;2023-06-10T11:11:02;34.60;66.30
42715;DHT22;28351;51.480;5.706;2023-06-10T11:16:40;36.10;66.60
42715;DHT22;28351;51.480;5.706;2023-06-10T11:19:06;36.40;64.40
42715;DHT22;28351;51.480;5.706;2023-06-10T11:21:45;36.80;64.80
42715;DHT22;28351;51.480;5.706;2023-06-10T11:24:22;36.30;64.50
42715;DHT22;28351;51.480;5.706;2023-06-10T11:26:48;36.60;65.00
42715;DHT22;28351;51.480;5.706;2023-06-10T11:29:14;37.30;63.00
42715;DHT22;28351;51.480;5.706;2023-06-10T11:31:45;37.60;63.90
42715;DHT22;28351;51.480;5.706;2023-06-10T11:34:12;37.90;62.00
42715;DHT22;28351;51.480;5.706;2023-06-10T11:36:40;38.40;61.80
42715;DHT22;28351;51.480;5.706;2023-06-10T11:39:08;38.50;61.80
42715;DHT22;28351;51.480;5.706;2023-06-10T11:41:35;38.70;61.80
42715;DHT22;28351;51.480;5.706;2023-06-10T11:44:11;39.00;61.90
42715;DHT22;28351;51.480;5.706;2023-06-10T11:46:38;39.20;60.80
42715;DHT22;28351;51.480;5.706;2023-06-10T11:49:07;39.90;60.90
42715;DHT22;28351;51.480;5.706;2023-06-10T11:51:35;39.60;61.40
42715;DHT22;28351;51.480;5.706;2023-06-10T11:54:01;39.50;61.70
42715;DHT22;28351;51.480;5.706;2023-06-10T11:56:28;39.90;60.60
42715;DHT22;28351;51.480;5.706;2023-06-10T11:58:55;39.70;61.30
42715;DHT22;28351;51.480;5.706;2023-06-10T12:01:21;40.00;59.80
42715;DHT22;28351;51.480;5.706;2023-06-10T12:03:47;39.30;59.40
42715;DHT22;28351;51.480;5.706;2023-06-10T12:06:13;39.20;60.70
42715;DHT22;28351;51.480;5.706;2023-06-10T12:08:43;40.00;60.10
42715;DHT22;28351;51.480;5.706;2023-06-10T12:11:09;40.50;60.00
42715;DHT22;28351;51.480;5.706;2023-06-10T12:13:34;40.30;60.10
42715;DHT22;28351;51.480;5.706;2023-06-10T12:16:07;40.00;58.70
42715;DHT22;28351;51.480;5.706;2023-06-10T12:18:33;40.30;59.00
42715;DHT22;28351;51.480;5.706;2023-06-10T12:21:02;40.30;58.60
42715;DHT22;28351;51.480;5.706;2023-06-10T12:23:29;40.40;58.80
42715;DHT22;28351;51.480;5.706;2023-06-10T12:25:55;41.10;58.50
42715;DHT22;28351;51.480;5.706;2023-06-10T12:28:25;41.10;59.20
42715;DHT22;28351;51.480;5.706;2023-06-10T12:30:51;41.60;58.70
42715;DHT22;28351;51.480;5.706;2023-06-10T12:33:18;41.40;57.90
42715;DHT22;28351;51.480;5.706;2023-06-10T12:35:48;41.30;58.20
42715;DHT22;28351;51.480;5.706;2023-06-10T12:38:17;41.70;57.00
42715;DHT22;28351;51.480;5.706;2023-06-10T12:40:47;41.60;57.30
42715;DHT22;28351;51.480;5.706;2023-06-10T12:43:12;41.20;57.00
42715;DHT22;28351;51.480;5.706;2023-06-10T12:45:39;41.30;58.20
42715;DHT22;28351;51.480;5.706;2023-06-10T12:48:17;41.60;58.30
42715;DHT22;28351;51.480;5.706;2023-06-10T12:50:42;41.10;57.60
42715;DHT22;28351;51.480;5.706;2023-06-10T12:53:09;41.20;56.30
42715;DHT22;28351;51.480;5.706;2023-06-10T12:55:37;41.00;56.80
42715;DHT22;28351;51.480;5.706;2023-06-10T12:58:03;41.20;57.50
42715;DHT22;28351;51.480;5.706;2023-06-10T13:00:29;40.50;57.20
42715;DHT22;28351;51.480;5.706;2023-06-10T13:02:56;41.40;58.60
42715;DHT22;28351;51.480;5.706;2023-06-10T13:05:22;40.10;56.90
42715;DHT22;28351;51.480;5.706;2023-06-10T13:07:48;39.10;57.40
42715;DHT22;28351;51.480;5.706;2023-06-10T13:10:17;38.50;58.00
42715;DHT22;28351;51.480;5.706;2023-06-10T13:12:44;38.70;57.30
42715;DHT22;28351;51.480;5.706;2023-06-10T13:15:10;38.00;56.90
42715;DHT22;28351;51.480;5.706;2023-06-10T13:17:37;39.00;58.20
42715;DHT22;28351;51.480;5.706;2023-06-10T13:20:06;40.40;57.40
42715;DHT22;28351;51.480;5.706;2023-06-10T13:22:33;41.30;57.40
42715;DHT22;28351;51.480;5.706;2023-06-10T13:25:04;41.70;56.30
42715;DHT22;28351;51.480;5.706;2023-06-10T13:27:30;41.30;55.90
42715;DHT22;28351;51.480;5.706;2023-06-10T13:29:56;40.20;56.00
42715;DHT22;28351;51.480;5.706;2023-06-10T13:32:24;40.20;57.00
42715;DHT22;28351;51.480;5.706;2023-06-10T13:34:50;41.30;57.30
42715;DHT22;28351;51.480;5.706;2023-06-10T13:37:16;42.40;55.30
42715;DHT22;28351;51.480;5.706;2023-06-10T13:39:45;42.80;54.40
42715;DHT22;28351;51.480;5.706;2023-06-10T13:42:16;43.30;55.10
42715;DHT22;28351;51.480;5.706;2023-06-10T13:44:42;43.60;55.20
42715;DHT22;28351;51.480;5.706;2023-06-10T13:47:07;43.90;56.10
42715;DHT22;28351;51.480;5.706;2023-06-10T13:49:33;44.40;54.20
42715;DHT22;28351;51.480;5.706;2023-06-10T13:51:59;43.80;52.90
42715;DHT22;28351;51.480;5.706;2023-06-10T13:54:24;42.90;53.00
42715;DHT22;28351;51.480;5.706;2023-06-10T13:56:50;43.00;54.80
42715;DHT22;28351;51.480;5.706;2023-06-10T13:59:16;43.10;53.90
42715;DHT22;28351;51.480;5.706;2023-06-10T14:01:41;42.40;53.50
42715;DHT22;28351;51.480;5.706;2023-06-10T14:04:07;42.00;53.80
42715;DHT22;28351;51.480;5.706;2023-06-10T14:06:33;40.70;54.40
42715;DHT22;28351;51.480;5.706;2023-06-10T14:08:59;39.40;54.50
42715;DHT22;28351;51.480;5.706;2023-06-10T14:11:25;38.30;56.00
42715;DHT22;28351;51.480;5.706;2023-06-10T14:13:54;38.20;56.00
42715;DHT22;28351;51.480;5.706;2023-06-10T14:16:23;39.40;56.30
42715;DHT22;28351;51.480;5.706;2023-06-10T14:18:49;40.70;55.90
42715;DHT22;28351;51.480;5.706;2023-06-10T14:21:16;41.40;55.60
42715;DHT22;28351;51.480;5.706;2023-06-10T14:23:42;42.00;55.20
42715;DHT22;28351;51.480;5.706;2023-06-10T14:26:09;42.10;54.20
42715;DHT22;28351;51.480;5.706;2023-06-10T14:28:34;42.50;53.90
42715;DHT22;28351;51.480;5.706;2023-06-10T14:31:00;42.30;54.00
42715;DHT22;28351;51.480;5.706;2023-06-10T14:33:26;41.80;54.30
42715;DHT22;28351;51.480;5.706;2023-06-10T14:35:52;41.10;54.70
42715;DHT22;28351;51.480;5.706;2023-06-10T14:38:17;39.40;55.20
42715;DHT22;28351;51.480;5.706;2023-06-10T14:40:43;38.10;56.40
42715;DHT22;28351;51.480;5.706;2023-06-10T14:43:09;36.30;57.10
42715;DHT22;28351;51.480;5.706;2023-06-10T14:45:39;36.40;57.80
42715;DHT22;28351;51.480;5.706;2023-06-10T14:48:06;37.80;58.00
42715;DHT22;28351;51.480;5.706;2023-06-10T14:50:32;39.20;56.10
42715;DHT22;28351;51.480;5.706;2023-06-10T14:52:58;40.30;55.70
42715;DHT22;28351;51.480;5.706;2023-06-10T14:55:24;40.80;55.00
42715;DHT22;28351;51.480;5.706;2023-06-10T14:57:49;41.30;55.50
42715;DHT22;28351;51.480;5.706;2023-06-10T15:00:15;42.30;54.80
42715;DHT22;28351;51.480;5.706;2023-06-10T15:02:45;41.20;54.20
42715;DHT22;28351;51.480;5.706;2023-06-10T15:05:13;40.50;54.80
42715;DHT22;28351;51.480;5.706;2023-06-10T15:07:40;40.40;55.60
42715;DHT22;28351;51.480;5.706;2023-06-10T15:10:06;40.20;54.90
42715;DHT22;28351;51.480;5.706;2023-06-10T15:12:32;38.60;54.80
42715;DHT22;28351;51.480;5.706;2023-06-10T15:14:58;37.30;56.40
42715;DHT22;28351;51.480;5.706;2023-06-10T15:17:23;37.00;57.40
42715;DHT22;28351;51.480;5.706;2023-06-10T15:19:49;38.40;57.30
42715;DHT22;28351;51.480;5.706;2023-06-10T15:22:14;39.50;56.30
42715;DHT22;28351;51.480;5.706;2023-06-10T15:24:40;40.30;55.70
42715;DHT22;28351;51.480;5.706;2023-06-10T15:27:05;39.50;55.60
42715;DHT22;28351;51.480;5.706;2023-06-10T15:29:32;37.80;56.60
42715;DHT22;28351;51.480;5.706;2023-06-10T15:31:57;36.30;57.20
42715;DHT22;28351;51.480;5.706;2023-06-10T15:34:23;35.40;58.30
42715;DHT22;28351;51.480;5.706;2023-06-10T15:36:48;34.70;59.10
42715;DHT22;28351;51.480;5.706;2023-06-10T15:39:14;34.20;59.60